createdAt,value
2023-05-19T00:02:09.335Z,90.23
2023-05-19T00:04:37.725Z,89.58
2023-05-19T00:07:05.671Z,89.66
2023-05-19T00:09:33.164Z,90.89
2023-05-19T00:12:00.650Z,90.82
2023-05-19T00:14:29.118Z,90.73
2023-05-19T00:16:58.070Z,91.07
2023-05-19T00:23:38.071Z,91.80
2023-05-19T00:26:05.401Z,91.84
2023-05-19T00:28:32.741Z,91.72
2023-05-19T00:31:01.182Z,91.96
2023-05-19T00:33:28.455Z,90.91
2023-05-19T00:35:55.769Z,91.42
2023-05-19T00:38:23.059Z,91.34
2023-05-19T00:40:50.411Z,90.79
2023-05-19T00:43:17.727Z,91.14
2023-05-19T00:45:45.107Z,90.27
2023-05-19T00:48:12.446Z,90.32
2023-05-19T00:50:40.220Z,91.04
2023-05-19T00:53:07.557Z,90.94
2023-05-19T00:55:34.878Z,91.30
2023-05-19T00:58:02.388Z,92.21
2023-05-19T01:00:30.673Z,91.71
2023-05-19T01:02:58.343Z,92.35
2023-05-19T01:05:25.892Z,93.03
2023-05-19T01:07:53.731Z,93.00
2023-05-19T01:10:21.085Z,92.93
2023-05-19T01:12:48.736Z,93.01
2023-05-19T01:15:16.115Z,93.08
2023-05-19T01:18:08.658Z,92.70
2023-05-19T01:20:38.927Z,92.26
2023-05-19T01:23:18.207Z,92.26
2023-05-19T01:25:48.206Z,92.10
2023-05-19T01:28:33.450Z,92.09
2023-05-19T01:31:00.884Z,92.67
2023-05-19T01:33:29.269Z,93.21
2023-05-19T01:35:56.614Z,92.88
2023-05-19T01:38:24.484Z,93.42
2023-05-19T01:40:51.816Z,92.70
2023-05-19T01:43:21.607Z,92.18
2023-05-19T01:45:49.028Z,92.75
2023-05-19T01:48:16.643Z,92.67
2023-05-19T01:50:45.781Z,92.37
2023-05-19T01:53:13.185Z,91.66
2023-05-19T01:55:45.392Z,92.07
2023-05-19T01:58:45.821Z,92.40
2023-05-19T02:01:46.006Z,91.93
2023-05-19T02:04:21.590Z,92.02
2023-05-19T02:06:49.041Z,92.29
2023-05-19T02:09:21.333Z,92.10
2023-05-19T02:11:54.722Z,92.30
2023-05-19T02:14:34.458Z,92.88
2023-05-19T02:17:01.749Z,92.20
2023-05-19T02:19:32.671Z,92.86
2023-05-19T02:22:00.150Z,92.62
2023-05-19T02:24:27.473Z,92.69
2023-05-19T02:26:54.823Z,93.26
2023-05-19T02:29:22.139Z,93.39
2023-05-19T02:31:51.152Z,93.75
2023-05-19T02:34:19.613Z,93.61
2023-05-19T02:36:49.815Z,93.33
2023-05-19T02:39:17.164Z,93.07
2023-05-19T02:41:44.462Z,93.41
2023-05-19T02:44:11.777Z,92.54
2023-05-19T02:46:39.224Z,92.90
2023-05-19T02:49:06.793Z,92.68
2023-05-19T02:51:34.060Z,92.12
2023-05-19T02:54:01.379Z,92.35
2023-05-19T02:56:28.788Z,92.39
2023-05-19T02:58:56.464Z,92.32
2023-05-19T03:01:23.824Z,93.02
2023-05-19T03:03:51.271Z,92.71
2023-05-19T03:06:18.640Z,92.59
2023-05-19T03:08:46.186Z,92.67
2023-05-19T03:11:13.707Z,91.87
2023-05-19T03:13:41.269Z,92.26
2023-05-19T03:16:08.654Z,92.23
2023-05-19T03:18:36.273Z,91.51
2023-05-19T03:21:03.874Z,91.49
2023-05-19T03:23:31.175Z,91.04
2023-05-19T03:25:58.494Z,91.34
2023-05-19T03:28:27.443Z,91.44
2023-05-19T03:30:54.770Z,91.23
2023-05-19T03:33:28.094Z,90.74
2023-05-19T03:35:56.863Z,90.52
2023-05-19T03:38:24.234Z,90.46
2023-05-19T03:40:57.007Z,89.83
2023-05-19T03:43:24.310Z,90.61
2023-05-19T03:45:58.927Z,90.12
2023-05-19T03:48:45.054Z,88.76
2023-05-19T03:51:32.602Z,88.92
2023-05-19T03:54:07.464Z,89.01
2023-05-19T03:56:42.046Z,88.88
2023-05-19T03:59:12.350Z,88.75
2023-05-19T04:01:39.655Z,87.83
2023-05-19T04:04:07.422Z,87.96
2023-05-19T04:06:36.336Z,87.92
2023-05-19T04:09:05.201Z,86.96
2023-05-19T04:11:32.565Z,86.38
2023-05-19T04:14:00.224Z,85.95
2023-05-19T04:16:27.628Z,86.54
2023-05-19T04:18:55.151Z,86.34
2023-05-19T04:21:22.499Z,86.69
2023-05-19T04:23:49.891Z,86.17
2023-05-19T04:26:18.150Z,85.55
2023-05-19T04:28:45.896Z,84.83
2023-05-19T04:31:14.259Z,85.10
2023-05-19T04:33:42.359Z,85.32
2023-05-19T04:36:10.793Z,84.22
2023-05-19T04:38:40.606Z,84.76
2023-05-19T04:41:11.076Z,84.36
2023-05-19T04:43:42.066Z,84.23
2023-05-19T04:46:13.255Z,84.60
2023-05-19T04:48:42.795Z,84.06
2023-05-19T04:51:10.164Z,84.63
2023-05-19T04:53:37.523Z,84.21
2023-05-19T04:56:08.536Z,83.90
2023-05-19T04:58:35.985Z,83.78
2023-05-19T05:01:03.891Z,83.75
2023-05-19T05:03:33.257Z,83.32
2023-05-19T05:06:01.409Z,83.31
2023-05-19T05:08:30.265Z,83.04
2023-05-19T05:10:57.869Z,82.45
2023-05-19T05:13:25.676Z,82.52
2023-05-19T05:15:54.274Z,82.11
2023-05-19T05:18:22.258Z,79.88
2023-05-19T05:20:50.390Z,79.01
2023-05-19T05:23:18.143Z,78.24
2023-05-19T05:25:47.808Z,77.05
2023-05-19T05:28:16.494Z,76.90
2023-05-19T05:30:45.022Z,77.01
2023-05-19T05:33:14.429Z,76.52
2023-05-19T05:35:42.330Z,76.57
2023-05-19T05:38:11.801Z,76.39
2023-05-19T05:40:40.265Z,76.37
2023-05-19T05:43:08.625Z,75.64
2023-05-19T05:45:42.009Z,75.33
2023-05-19T05:48:09.822Z,74.89
2023-05-19T05:50:37.493Z,74.40
2023-05-19T05:53:06.613Z,74.73
2023-05-19T05:55:35.788Z,74.94
2023-05-19T05:58:03.722Z,73.66
2023-05-19T06:00:31.411Z,73.79
2023-05-19T06:02:59.430Z,73.39
2023-05-19T06:05:27.211Z,72.79
2023-05-19T06:07:55.245Z,73.41
2023-05-19T06:10:26.381Z,72.78
2023-05-19T06:12:55.272Z,73.07
2023-05-19T06:15:23.545Z,74.08
2023-05-19T06:18:01.718Z,74.35
2023-05-19T06:20:29.603Z,74.17
2023-05-19T06:22:57.664Z,73.43
2023-05-19T06:25:27.488Z,74.14
2023-05-19T06:27:55.962Z,74.37
2023-05-19T06:30:24.222Z,74.15
2023-05-19T06:33:05.752Z,73.09
2023-05-19T06:35:33.468Z,71.92
2023-05-19T06:38:01.404Z,72.94
2023-05-19T06:40:28.795Z,72.77
2023-05-19T06:42:56.311Z,71.29
2023-05-19T06:45:35.010Z,71.13
2023-05-19T06:48:04.387Z,70.63
2023-05-19T06:50:32.095Z,70.92
2023-05-19T06:52:59.536Z,70.25
2023-05-19T06:55:27.001Z,69.63
2023-05-19T06:57:54.295Z,69.31
2023-05-19T07:00:23.801Z,69.37
2023-05-19T07:02:53.299Z,69.83
2023-05-19T07:05:21.080Z,68.94
2023-05-19T07:07:53.068Z,69.61
2023-05-19T07:10:24.581Z,69.41
2023-05-19T07:12:52.816Z,69.90
2023-05-19T07:15:23.014Z,69.45
2023-05-19T07:17:50.483Z,68.85
2023-05-19T07:20:18.007Z,68.90
2023-05-19T07:22:45.347Z,68.10
2023-05-19T07:25:12.668Z,68.25
2023-05-19T07:27:43.015Z,67.48
2023-05-19T07:30:11.159Z,67.76
2023-05-19T07:32:38.608Z,67.20
2023-05-19T07:35:06.085Z,67.12
2023-05-19T07:37:33.404Z,66.89
2023-05-19T07:40:00.731Z,66.57
2023-05-19T07:42:28.019Z,66.82
2023-05-19T07:44:55.392Z,66.57
2023-05-19T07:47:22.695Z,66.64
2023-05-19T07:49:51.811Z,65.87
2023-05-19T07:52:19.354Z,66.14
2023-05-19T07:54:46.791Z,66.27
2023-05-19T07:57:14.607Z,65.73
2023-05-19T07:59:41.950Z,65.43
2023-05-19T08:02:09.296Z,65.92
2023-05-19T08:04:36.658Z,65.93
2023-05-19T08:07:04.092Z,66.12
2023-05-19T08:09:31.402Z,66.24
2023-05-19T08:11:58.691Z,65.81
2023-05-19T08:14:27.072Z,65.50
2023-05-19T08:16:54.399Z,65.21
2023-05-19T08:19:21.912Z,64.88
2023-05-19T08:21:49.735Z,65.21
2023-05-19T08:24:17.235Z,65.13
2023-05-19T08:26:44.592Z,64.39
2023-05-19T08:29:12.133Z,64.58
2023-05-19T08:31:39.518Z,63.97
2023-05-19T08:34:06.922Z,63.15
2023-05-19T08:36:34.549Z,62.46
2023-05-19T08:39:04.563Z,63.93
2023-05-19T08:41:31.846Z,62.90
2023-05-19T08:43:59.351Z,62.42
2023-05-19T08:46:27.001Z,61.67
2023-05-19T08:48:55.401Z,61.36
2023-05-19T08:51:39.051Z,61.93
2023-05-19T08:54:14.688Z,61.48
2023-05-19T08:56:45.592Z,61.56
2023-05-19T08:59:14.128Z,61.41
2023-05-19T09:01:45.781Z,61.42
2023-05-19T09:04:13.486Z,60.28
2023-05-19T09:06:42.501Z,59.35
2023-05-19T09:09:10.282Z,59.78
2023-05-19T09:11:37.875Z,59.91
2023-05-19T09:14:07.651Z,59.42
2023-05-19T09:16:35.306Z,59.58
2023-05-19T09:19:02.894Z,60.22
2023-05-19T09:21:32.974Z,60.08
2023-05-19T09:24:06.844Z,59.91
2023-05-19T09:26:41.567Z,59.88
2023-05-19T09:29:15.648Z,59.15
2023-05-19T09:31:50.406Z,59.17
2023-05-19T09:34:18.063Z,58.99
2023-05-19T09:36:49.471Z,59.19
2023-05-19T09:39:17.246Z,59.51
2023-05-19T09:41:44.973Z,58.51
2023-05-19T09:44:21.322Z,58.44
2023-05-19T09:46:52.817Z,57.22
2023-05-19T09:49:29.727Z,56.88
2023-05-19T09:51:57.846Z,55.83
2023-05-19T09:54:25.772Z,56.29
2023-05-19T09:56:59.094Z,57.15
2023-05-19T09:59:27.259Z,57.69
2023-05-19T10:01:56.946Z,56.37
2023-05-19T10:04:26.829Z,55.54
2023-05-19T10:06:55.260Z,56.11
2023-05-19T10:09:26.564Z,55.75
2023-05-19T10:11:54.884Z,56.26
2023-05-19T10:14:26.659Z,56.38
2023-05-19T10:16:58.661Z,55.96
2023-05-19T10:19:29.373Z,56.82
2023-05-19T10:21:57.027Z,57.26
2023-05-19T10:24:24.372Z,57.50
2023-05-19T10:26:55.685Z,57.42
2023-05-19T10:29:28.368Z,56.35
2023-05-19T10:31:56.337Z,54.81
2023-05-19T10:34:34.804Z,55.17
2023-05-19T10:37:10.866Z,55.50
2023-05-19T10:39:38.144Z,54.39
2023-05-19T10:42:15.859Z,54.72
2023-05-19T10:45:21.385Z,53.88
2023-05-19T10:47:50.947Z,53.84
2023-05-19T10:50:18.379Z,53.13
2023-05-19T10:52:45.752Z,54.14
2023-05-19T10:55:17.740Z,53.94
2023-05-19T10:57:56.788Z,52.51
2023-05-19T11:00:28.055Z,52.10
2023-05-19T11:02:57.609Z,51.63
2023-05-19T11:05:29.042Z,51.16
2023-05-19T11:08:02.234Z,51.75
2023-05-19T11:10:29.841Z,51.16
2023-05-19T11:15:28.362Z,51.27
2023-05-19T11:17:55.999Z,50.37
2023-05-19T11:20:27.259Z,51.23
2023-05-19T11:23:03.593Z,52.07
2023-05-19T11:25:43.292Z,51.92
2023-05-19T11:28:12.190Z,50.50
2023-05-19T11:30:41.487Z,50.38
2023-05-19T11:33:09.025Z,49.63
2023-05-19T11:35:37.420Z,49.54
2023-05-19T11:38:05.406Z,48.51
2023-05-19T11:40:32.944Z,48.32
2023-05-19T11:43:01.916Z,48.13
2023-05-19T11:45:31.359Z,47.85
2023-05-19T11:48:02.492Z,48.68
2023-05-19T11:50:33.666Z,48.42
2023-05-19T11:53:01.490Z,47.83
2023-05-19T11:55:29.789Z,45.86
2023-05-19T12:00:31.265Z,46.57
2023-05-19T12:02:58.715Z,46.85
2023-05-19T12:05:26.591Z,45.62
2023-05-19T12:07:54.042Z,45.47
2023-05-19T12:10:25.008Z,45.99
2023-05-19T12:12:53.319Z,45.57
2023-05-19T12:15:23.968Z,47.17
2023-05-19T12:17:58.891Z,46.79
2023-05-19T12:20:26.868Z,46.94
2023-05-19T12:22:57.383Z,45.02
2023-05-19T12:25:24.878Z,44.34
2023-05-19T12:27:53.251Z,44.52
2023-05-19T12:30:25.129Z,46.62
2023-05-19T12:32:53.960Z,47.65
2023-05-19T12:35:26.010Z,47.47
2023-05-19T12:37:53.406Z,47.12
2023-05-19T12:40:20.748Z,46.81
2023-05-19T12:42:48.809Z,46.22
2023-05-19T12:45:16.091Z,46.08
2023-05-19T12:47:43.418Z,45.09
2023-05-19T12:50:11.110Z,45.70
2023-05-19T12:52:45.399Z,45.81
2023-05-19T12:55:12.890Z,44.82
2023-05-19T12:57:41.565Z,44.82
2023-05-19T13:00:14.798Z,43.01
2023-05-19T13:03:15.989Z,41.58
2023-05-19T13:05:44.422Z,42.60
2023-05-19T13:08:13.118Z,42.50
2023-05-19T13:10:42.334Z,42.41
2023-05-19T13:13:09.858Z,42.69
2023-05-19T13:15:38.381Z,42.42
2023-05-19T13:18:06.855Z,41.90
2023-05-19T13:20:34.708Z,41.26
2023-05-19T13:23:02.468Z,38.29
2023-05-19T13:25:29.755Z,40.56
2023-05-19T13:27:59.343Z,40.71
2023-05-19T13:30:27.071Z,40.60
2023-05-19T13:32:54.471Z,40.01
2023-05-19T13:35:21.884Z,39.92
2023-05-19T13:37:49.601Z,38.70
2023-05-19T13:40:17.562Z,36.51
2023-05-19T13:42:45.411Z,36.35
2023-05-19T13:45:12.729Z,37.36
2023-05-19T13:47:42.304Z,38.61
2023-05-19T13:50:12.378Z,38.92
2023-05-19T13:52:39.790Z,40.13
2023-05-19T13:55:07.688Z,40.71
2023-05-19T13:57:35.569Z,40.70
2023-05-19T14:00:04.736Z,39.75
2023-05-19T14:02:41.281Z,39.30
2023-05-19T14:05:08.860Z,38.47
2023-05-19T14:07:36.173Z,38.35
2023-05-19T14:10:05.666Z,36.91
2023-05-19T14:12:41.579Z,35.83
2023-05-19T14:15:14.872Z,34.55
2023-05-19T14:17:42.279Z,33.04
2023-05-19T14:20:10.125Z,33.71
2023-05-19T14:22:37.422Z,31.94
2023-05-19T14:25:05.310Z,30.39
2023-05-19T14:27:32.688Z,29.33
2023-05-19T14:30:00.009Z,29.04
2023-05-19T14:32:30.089Z,30.29
2023-05-19T14:34:57.775Z,29.20
2023-05-19T14:37:28.831Z,30.31
2023-05-19T14:39:57.611Z,30.04
2023-05-19T14:42:25.123Z,28.89
2023-05-19T14:44:52.447Z,29.52
2023-05-19T14:47:19.732Z,29.38
2023-05-19T14:49:47.220Z,29.67
2023-05-19T14:52:14.531Z,29.20
2023-05-19T14:54:41.841Z,30.12
2023-05-19T14:57:09.163Z,29.19
2023-05-19T14:59:39.329Z,28.80
2023-05-19T15:02:06.672Z,29.62
2023-05-19T15:04:33.931Z,28.62
2023-05-19T15:09:31.809Z,30.15
2023-05-19T15:12:01.326Z,28.25
2023-05-19T15:14:30.422Z,28.65
2023-05-19T15:16:58.707Z,29.23
2023-05-19T15:19:26.331Z,29.54
2023-05-19T15:21:53.849Z,29.86
2023-05-19T15:24:21.324Z,29.31
2023-05-19T15:26:48.751Z,28.92
2023-05-19T15:29:16.053Z,28.58
2023-05-19T15:31:43.495Z,27.75
2023-05-19T15:34:10.882Z,28.17
2023-05-19T15:36:38.220Z,29.04
2023-05-19T15:39:06.616Z,28.50
2023-05-19T15:41:33.991Z,28.98
2023-05-19T15:44:02.434Z,30.69
2023-05-19T15:46:30.007Z,30.25
2023-05-19T15:48:57.317Z,30.12
2023-05-19T15:51:24.871Z,29.76
2023-05-19T15:53:52.477Z,30.47
2023-05-19T15:56:19.768Z,29.44
2023-05-19T15:58:47.259Z,30.63
2023-05-19T16:01:15.301Z,30.55
2023-05-19T16:03:43.653Z,29.06
2023-05-19T16:06:11.320Z,29.44
2023-05-19T16:08:38.656Z,30.19
2023-05-19T16:11:06.063Z,29.40
2023-05-19T16:13:34.021Z,28.84
2023-05-19T16:16:01.676Z,31.53
2023-05-19T16:18:31.972Z,33.83
2023-05-19T16:20:59.332Z,35.68
2023-05-19T16:23:27.536Z,37.31
2023-05-19T16:25:54.948Z,38.21
2023-05-19T16:28:24.775Z,38.75
2023-05-19T16:30:52.479Z,39.74
2023-05-19T16:33:19.802Z,39.27
2023-05-19T16:35:47.218Z,39.46
2023-05-19T16:38:14.592Z,39.50
2023-05-19T16:40:41.936Z,39.35
2023-05-19T16:43:09.289Z,39.61
2023-05-19T16:45:36.620Z,39.33
2023-05-19T16:48:04.094Z,39.62
2023-05-19T16:50:31.482Z,39.71
2023-05-19T16:52:58.816Z,40.61
2023-05-19T16:55:26.934Z,40.71
2023-05-19T16:57:54.336Z,41.08
2023-05-19T17:00:21.734Z,41.32
2023-05-19T17:02:49.234Z,41.21
2023-05-19T17:05:16.682Z,42.15
2023-05-19T17:07:44.000Z,42.22
2023-05-19T17:10:11.422Z,42.22
2023-05-19T17:12:38.740Z,42.42
2023-05-19T17:15:06.612Z,43.13
2023-05-19T17:17:34.000Z,43.75
2023-05-19T17:20:01.484Z,44.88
2023-05-19T17:22:30.241Z,44.70
2023-05-19T17:24:57.817Z,44.92
2023-05-19T17:27:25.193Z,44.47
2023-05-19T17:29:52.634Z,46.21
2023-05-19T17:32:25.750Z,48.02
2023-05-19T17:34:53.244Z,49.69
2023-05-19T17:37:23.555Z,49.79
2023-05-19T17:39:51.000Z,51.40
2023-05-19T17:42:18.364Z,51.74
2023-05-19T17:44:45.847Z,52.94
2023-05-19T17:47:13.206Z,53.17
2023-05-19T17:49:40.528Z,53.79
2023-05-19T17:52:08.461Z,53.96
2023-05-19T17:54:36.029Z,54.90
2023-05-19T17:57:03.671Z,55.47
2023-05-19T17:59:31.381Z,55.51
2023-05-19T18:01:59.025Z,56.40
2023-05-19T18:04:26.678Z,56.22
2023-05-19T18:06:54.059Z,57.39
2023-05-19T18:09:21.448Z,57.46
2023-05-19T18:11:48.758Z,57.93
2023-05-19T18:14:16.085Z,58.47
2023-05-19T18:16:43.734Z,59.20
2023-05-19T18:19:11.326Z,59.14
2023-05-19T18:21:38.729Z,59.68
2023-05-19T18:24:07.122Z,60.83
2023-05-19T18:26:34.422Z,61.52
2023-05-19T18:29:04.886Z,62.35
2023-05-19T18:31:32.616Z,63.16
2023-05-19T18:33:59.948Z,63.64
2023-05-19T18:36:27.318Z,63.76
2023-05-19T18:38:55.190Z,63.96
2023-05-19T18:41:22.922Z,64.06
2023-05-19T18:43:50.222Z,64.75
2023-05-19T18:46:17.978Z,65.73
2023-05-19T18:48:45.399Z,66.80
2023-05-19T18:51:15.764Z,67.66
2023-05-19T18:53:43.102Z,67.83
2023-05-19T18:56:15.269Z,67.91
2023-05-19T18:58:42.574Z,68.67
2023-05-19T19:01:10.020Z,68.42
2023-05-19T19:03:37.434Z,68.25
2023-05-19T19:06:04.787Z,68.50
2023-05-19T19:08:32.112Z,68.82
2023-05-19T19:11:01.116Z,69.34
2023-05-19T19:13:28.487Z,68.43
2023-05-19T19:15:58.805Z,69.77
2023-05-19T19:18:26.766Z,69.62
2023-05-19T19:20:54.980Z,70.28
2023-05-19T19:23:22.319Z,70.34
2023-05-19T19:25:50.384Z,70.50
2023-05-19T19:28:17.714Z,70.56
2023-05-19T19:30:45.937Z,70.82
2023-05-19T19:33:13.315Z,71.33
2023-05-19T19:35:41.263Z,71.44
2023-05-19T19:38:08.547Z,72.51
2023-05-19T19:40:36.324Z,72.93
2023-05-19T19:43:04.169Z,73.12
2023-05-19T19:45:32.268Z,73.01
2023-05-19T19:47:59.655Z,73.32
2023-05-19T19:50:27.349Z,73.46
2023-05-19T19:52:54.728Z,74.01
2023-05-19T19:55:22.018Z,74.45
2023-05-19T19:57:51.128Z,74.51
2023-05-19T20:00:18.594Z,74.67
2023-05-19T20:05:19.049Z,75.12
2023-05-19T20:07:46.360Z,75.73
2023-05-19T20:10:13.767Z,75.99
2023-05-19T20:12:41.585Z,76.30
2023-05-19T20:15:09.481Z,76.46
2023-05-19T20:17:37.275Z,77.28
2023-05-19T20:20:09.904Z,76.90
2023-05-19T20:22:37.204Z,77.30
2023-05-19T20:25:04.972Z,77.88
2023-05-19T20:27:32.412Z,78.61
2023-05-19T20:29:59.764Z,79.24
2023-05-19T20:32:27.124Z,78.50
2023-05-19T20:34:54.444Z,78.89
2023-05-19T20:37:22.408Z,79.06
2023-05-19T20:39:49.810Z,79.15
2023-05-19T20:42:17.154Z,79.69
2023-05-19T20:44:44.527Z,80.25
2023-05-19T20:47:11.919Z,80.84
2023-05-19T20:49:39.277Z,80.89
2023-05-19T20:52:06.805Z,81.21
2023-05-19T20:54:34.062Z,81.37
2023-05-19T20:57:06.345Z,82.00
2023-05-19T20:59:33.702Z,81.76
2023-05-19T21:02:01.238Z,82.50
2023-05-19T21:04:28.557Z,82.17
2023-05-19T21:06:56.052Z,82.60
2023-05-19T21:09:23.343Z,82.66
2023-05-19T21:11:53.207Z,81.29
2023-05-19T21:14:23.448Z,81.91
2023-05-19T21:16:51.422Z,82.05
2023-05-19T21:19:20.630Z,82.17
2023-05-19T21:21:50.477Z,81.01
2023-05-19T21:24:17.855Z,80.61
2023-05-19T21:26:45.203Z,81.71
2023-05-19T21:29:12.568Z,82.18
2023-05-19T21:31:39.970Z,82.20
2023-05-19T21:34:07.832Z,82.44
2023-05-19T21:36:35.345Z,82.55
2023-05-19T21:39:03.743Z,82.49
2023-05-19T21:41:33.720Z,82.56
2023-05-19T21:44:01.110Z,83.04
2023-05-19T21:46:29.173Z,82.59
2023-05-19T21:48:56.790Z,82.57
2023-05-19T21:51:24.137Z,82.75
2023-05-19T21:53:51.429Z,82.54
2023-05-19T21:56:18.762Z,81.42
2023-05-19T21:58:46.120Z,81.65
2023-05-19T22:01:14.384Z,79.58
2023-05-19T22:03:42.071Z,76.43
2023-05-19T22:06:09.400Z,77.46
2023-05-19T22:08:36.747Z,77.76
2023-05-19T22:11:04.374Z,76.73
2023-05-19T22:13:32.041Z,78.92
2023-05-19T22:15:59.549Z,78.52
2023-05-19T22:18:26.926Z,78.71
2023-05-19T22:20:54.240Z,78.68
2023-05-19T22:23:21.674Z,80.05
2023-05-19T22:25:49.062Z,80.21
2023-05-19T22:28:16.337Z,80.14
2023-05-19T22:30:44.200Z,80.78
2023-05-19T22:33:11.970Z,79.78
2023-05-19T22:35:39.348Z,80.06
2023-05-19T22:38:08.895Z,81.05
2023-05-19T22:40:37.917Z,81.01
2023-05-19T22:43:05.212Z,81.68
2023-05-19T22:45:33.814Z,80.61
2023-05-19T22:48:01.487Z,80.26
2023-05-19T22:50:28.842Z,80.64
2023-05-19T22:52:56.279Z,81.62
2023-05-19T22:55:23.569Z,81.83
2023-05-19T22:57:51.155Z,82.01
2023-05-19T23:00:20.786Z,79.55
2023-05-19T23:02:48.113Z,78.78
2023-05-19T23:05:15.755Z,78.49
2023-05-19T23:07:43.112Z,79.04
2023-05-19T23:10:10.814Z,78.71
2023-05-19T23:12:38.204Z,78.30
2023-05-19T23:15:06.972Z,79.38
2023-05-19T23:17:34.326Z,79.75
2023-05-19T23:20:01.838Z,80.54
2023-05-19T23:22:29.118Z,80.55
2023-05-19T23:24:56.525Z,80.34
2023-05-19T23:27:23.861Z,80.11
2023-05-19T23:29:51.146Z,78.93
2023-05-19T23:32:18.453Z,77.59
2023-05-19T23:34:47.183Z,75.90
2023-05-19T23:37:14.479Z,75.85
2023-05-19T23:39:41.988Z,76.11
2023-05-19T23:42:09.303Z,76.70
2023-05-19T23:44:36.683Z,77.40
2023-05-19T23:47:04.110Z,79.33
2023-05-19T23:49:31.468Z,79.32
2023-05-19T23:51:58.869Z,79.73
2023-05-19T23:54:26.743Z,80.51
2023-05-19T23:56:55.800Z,81.22
2023-05-19T23:59:23.323Z,81.97
